Glynco, Georgia
Current Conditions -  °F | °C
As of 2:53 PM on Thursday 30 Oct 2014 (Local Time) from KSSI Reporting Station
Clear Clear  
Wind Chill: 75°   Ceiling: Unl
Heat Index: 75°   Visibility: 10mi
Dew Point: 64°   Wind: 9mph
Humidity: 69%   Direction: 70°ENE
Pressure: 29.91"   Gusts: NA
Location:  31.1428°N, 81.4709°W
Report Text: KSSI 301853Z AUTO 07008KT 10SM CLR 24/18 A2991 RMK AO2 SLP128 T02390178
Loading
Personal Weather Stations






























Interactive Weather Map
Tropical Storm Tracking
New forecast layout! Learn more

10-Day Weather Forecast

Advertisements
Track Severe Weather on mobile